Time;durP1;ratioP1;P1;durP2;ratioP2;P2;SDS_P1;SDS_P2;PMS_P1;PMS_P2;Temp;Humidity;BMP_temperature;BMP_pressure;BME280_temperature;BME280_humidity;BME280_pressure;Samples;Min_cycle;Max_cycle;Signal;HPM_P1;HPM_P2
2023/04/12 00:02:13;;;;;;;8.40;2.70;;;;;;;;;;110274;1277;22103;-79
2023/04/12 00:04:41;;;;;;;9.90;2.20;;;;;;;;;;110308;1276;22111;-78
2023/04/12 00:07:12;;;;;;;8.30;2.70;;;;;;;;;;110456;1277;22094;-78
2023/04/12 00:09:40;;;;;;;6.70;1.80;;;;;;;;;;110607;1256;22117;-79
2023/04/12 00:12:06;;;;;;;6.10;2.00;;;;;;;;;;110376;1276;22161;-79
2023/04/12 00:14:34;;;;;;;7.50;2.20;;;;;;;;;;110385;1276;22581;-79
2023/04/12 00:17:02;;;;;;;7.50;2.50;;;;;;;;;;110394;1276;22091;-79
2023/04/12 00:19:29;;;;;;;6.90;2.50;;;;;;;;;;110292;1261;22133;-79
2023/04/12 00:21:57;;;;;;;11.10;3.00;;;;;;;;;;110189;1277;22306;-79
2023/04/12 00:24:25;;;;;;;10.00;2.20;;;;;;;;;;110320;1277;22135;-78
2023/04/12 00:26:55;;;;;;;6.20;1.90;;;;;;;;;;110241;1279;22930;-78
2023/04/12 00:36:50;;;;;;;8.00;1.70;;;;;;;;;;109978;1284;22342;-79
2023/04/12 00:39:19;;;;;;;5.10;1.40;;;;;;;;;;109969;1263;22234;-79
2023/04/12 00:41:48;;;;;;;6.20;1.70;;;;;;;;;;109991;1284;22201;-78
2023/04/12 00:44:17;;;;;;;7.20;1.70;;;;;;;;;;109855;1284;22207;-78
2023/04/12 00:46:47;;;;;;;8.30;2.00;;;;;;;;;;109940;1284;22147;-79
2023/04/12 00:49:16;;;;;;;5.80;1.70;;;;;;;;;;109932;1267;22812;-78
2023/04/12 00:52:02;;;;;;;7.80;1.70;;;;;;;;;;109966;1284;22767;-79
2023/04/12 00:54:53;;;;;;;7.60;1.60;;;;;;;;;;109956;1284;22149;-79
2023/04/12 00:57:22;;;;;;;7.10;1.70;;;;;;;;;;109949;1284;21995;-79
2023/04/12 00:59:51;;;;;;;7.30;1.90;;;;;;;;;;110103;1265;22224;-79
2023/04/12 01:02:19;;;;;;;8.20;1.90;;;;;;;;;;109992;1284;22186;-79
2023/04/12 01:04:50;;;;;;;7.10;1.70;;;;;;;;;;109947;1284;22156;-79
2023/04/12 01:07:36;;;;;;;;;;;;;;;;;;;;;
2023/04/12 01:10:25;;;;;;;5.40;1.40;;;;;;;;;;110238;1262;22103;-78
2023/04/12 01:13:24;;;;;;;5.10;1.20;;;;;;;;;;110155;1279;22716;-78
2023/04/12 01:16:00;;;;;;;6.30;1.20;;;;;;;;;;110118;1279;22857;-79
2023/04/12 01:18:31;;;;;;;7.40;1.40;;;;;;;;;;110181;1279;22100;-78
2023/04/12 01:21:31;;;;;;;6.40;1.40;;;;;;;;;;110649;1259;22164;-79
2023/04/12 01:24:16;;;;;;;5.50;1.40;;;;;;;;;;110201;1278;22090;-78
2023/04/12 01:33:53;;;;;;;5.50;1.20;;;;;;;;;;104149;1299;544627;-79
2023/04/12 01:36:21;;;;;;;7.40;1.50;;;;;;;;;;106276;1287;22548;-81
2023/04/12 01:39:03;;;;;;;5.10;1.40;;;;;;;;;;106077;1287;22488;-82
2023/04/12 01:41:37;;;;;;;8.00;1.50;;;;;;;;;;106443;1287;24210;-79
2023/04/12 01:44:27;;;;;;;6.10;1.60;;;;;;;;;;106205;1271;22660;-83
2023/04/12 01:46:59;;;;;;;6.20;1.80;;;;;;;;;;102397;1285;5398244;-80
2023/04/12 01:49:30;;;;;;;5.30;1.70;;;;;;;;;;106417;1285;22558;-80
2023/04/12 01:52:09;;;;;;;5.50;1.60;;;;;;;;;;106430;1283;22656;-81
2023/04/12 01:54:40;;;;;;;6.40;2.00;;;;;;;;;;106959;1257;22524;-83
2023/04/12 01:57:11;;;;;;;4.80;1.40;;;;;;;;;;106907;1276;22517;-79
2023/04/12 01:59:42;;;;;;;7.70;1.90;;;;;;;;;;107066;1276;22517;-83
2023/04/12 02:02:15;;;;;;;7.70;1.30;;;;;;;;;;106914;1276;25220;-81
2023/04/12 02:04:53;;;;;;;5.20;1.30;;;;;;;;;;107141;1257;22485;-81
2023/04/12 02:07:26;;;;;;;7.60;1.40;;;;;;;;;;106973;1276;22608;-80
2023/04/12 02:10:01;;;;;;;7.50;2.00;;;;;;;;;;106894;1276;22632;-82
2023/04/12 02:12:34;;;;;;;7.40;1.80;;;;;;;;;;106893;1267;25614;-82
2023/04/12 02:15:06;;;;;;;10.90;2.00;;;;;;;;;;107022;1257;25315;-81
2023/04/12 02:17:40;;;;;;;9.30;2.20;;;;;;;;;;107124;1276;23121;-79
2023/04/12 02:20:11;;;;;;;9.00;3.10;;;;;;;;;;107129;1276;22596;-78
2023/04/12 02:22:45;;;;;;;8.70;2.40;;;;;;;;;;106939;1275;25580;-79
2023/04/12 02:25:17;;;;;;;6.70;2.20;;;;;;;;;;106945;1259;22524;-81
2023/04/12 02:27:58;;;;;;;9.30;2.40;;;;;;;;;;106930;1276;22548;-78
2023/04/12 02:30:47;;;;;;;7.90;1.80;;;;;;;;;;107032;1276;22480;-81
2023/04/12 02:33:17;;;;;;;6.80;2.00;;;;;;;;;;107003;1276;23130;-84
2023/04/12 02:39:57;;;;;;;6.30;1.90;;;;;;;;;;107067;1276;22537;-84
2023/04/12 02:42:51;;;;;;;7.40;2.00;;;;;;;;;;106926;1276;22535;-80
2023/04/12 02:45:47;;;;;;;6.10;2.00;;;;;;;;;;106433;1284;22541;-78
2023/04/12 02:48:18;;;;;;;7.70;2.30;;;;;;;;;;106400;1284;25325;-82
2023/04/12 02:50:49;;;;;;;7.90;2.10;;;;;;;;;;106430;1284;23267;-80
2023/04/12 02:53:42;;;;;;;7.10;1.90;;;;;;;;;;106244;1284;22745;-80
2023/04/12 02:56:54;;;;;;;7.60;1.90;;;;;;;;;;106363;1262;22589;-83
2023/04/12 03:00:18;;;;;;;6.60;1.70;;;;;;;;;;106441;1284;24219;-80
2023/04/12 03:03:00;;;;;;;6.40;1.80;;;;;;;;;;106412;1284;24123;-80
2023/04/12 03:05:31;;;;;;;6.60;1.90;;;;;;;;;;106308;1267;22657;-79
2023/04/12 03:08:04;;;;;;;5.10;2.00;;;;;;;;;;106394;1284;24196;-83
2023/04/12 03:11:00;;;;;;;10.50;2.20;;;;;;;;;;106370;1284;24269;-79
2023/04/12 03:13:42;;;;;;;7.50;2.00;;;;;;;;;;106338;1284;22577;-77
2023/04/12 03:16:28;;;;;;;10.30;2.20;;;;;;;;;;106313;1284;24279;-85
2023/04/12 03:19:38;;;;;;;;;;;;;;;;;;;;;
2023/04/12 03:23:13;;;;;;;7.10;2.00;;;;;;;;;;106646;1276;22543;-79
2023/04/12 03:25:41;;;;;;;7.80;1.80;;;;;;;;;;106363;1268;23058;-79
2023/04/12 03:28:27;;;;;;;5.10;1.70;;;;;;;;;;106164;1263;25583;-82
2023/04/12 03:30:54;;;;;;;7.90;2.20;;;;;;;;;;106278;1284;25345;-81
2023/04/12 03:33:23;;;;;;;7.70;2.40;;;;;;;;;;106427;1284;24194;-79
2023/04/12 03:46:38;;;;;;;9.80;2.80;;;;;;;;;;106820;1261;23124;-80
2023/04/12 03:49:38;;;;;;;;;;;;;;;;;;;;;
2023/04/12 03:56:13;;;;;;;10.60;4.50;;;;;;;;;;106833;1254;22632;-84
2023/04/12 03:58:47;;;;;;;8.10;3.00;;;;;;;;;;106866;1277;22619;-82
2023/04/12 04:01:20;;;;;;;9.40;4.30;;;;;;;;;;106998;1275;22544;-84
2023/04/12 04:06:51;;;;;;;11.70;5.00;;;;;;;;;;107171;1258;22598;-85
2023/04/12 04:10:22;;;;;;;11.20;4.20;;;;;;;;;;106828;1251;22513;-84
2023/04/12 04:12:53;;;;;;;13.20;4.20;;;;;;;;;;107047;1275;24260;-80
2023/04/12 04:15:42;;;;;;;12.90;4.60;;;;;;;;;;107066;1275;24358;-81
2023/04/12 04:18:42;;;;;;;;;;;;;;;;;;;;;
2023/04/12 04:28:26;;;;;;;29.20;6.80;;;;;;;;;;106604;1262;24228;-80
2023/04/12 04:34:52;;;;;;;13.20;5.40;;;;;;;;;;106312;1287;24081;-81
2023/04/12 04:41:38;;;;;;;23.20;6.10;;;;;;;;;;106520;1284;22535;-81
2023/04/12 04:44:50;;;;;;;19.70;5.50;;;;;;;;;;106337;1284;22525;-79
2023/04/12 04:51:18;;;;;;;14.00;6.00;;;;;;;;;;106378;1285;26624;-80
2023/04/12 04:53:53;;;;;;;21.70;7.30;;;;;;;;;;106326;1285;24246;-78
2023/04/12 05:00:31;;;;;;;;;;;;;;;;;;;;;
2023/04/12 05:03:58;;;;;;;28.90;9.30;;;;;;;;;;106850;1276;26660;-82
2023/04/12 05:06:30;;;;;;;27.10;10.90;;;;;;;;;;106855;1276;22521;-83
2023/04/12 05:26:25;;;;;;;16.90;5.50;;;;;;;;;;106290;1286;23002;-82
2023/04/12 05:32:02;;;;;;;;;;;;;;;;;;;;;
2023/04/12 05:35:13;;;;;;;14.00;3.20;;;;;;;;;;106615;1281;22826;-82
2023/04/12 05:37:43;;;;;;;13.30;3.10;;;;;;;;;;106475;1281;25357;-81
2023/04/12 05:46:15;;;;;;;11.70;3.80;;;;;;;;;;103946;1301;545017;-82
2023/04/12 05:51:58;;;;;;;9.00;3.10;;;;;;;;;;106428;1286;22537;-83
2023/04/12 05:54:28;;;;;;;12.00;3.10;;;;;;;;;;106628;1269;22540;-81
2023/04/12 05:56:55;;;;;;;15.20;3.90;;;;;;;;;;106100;1270;22780;-81
2023/04/12 05:59:22;;;;;;;13.50;4.20;;;;;;;;;;104199;1286;2572196;-79
2023/04/12 06:01:48;;;;;;;12.70;5.00;;;;;;;;;;106398;1269;22654;-82
2023/04/12 06:04:17;;;;;;;16.70;4.40;;;;;;;;;;106318;1286;25269;-79
2023/04/12 06:06:47;;;;;;;19.90;5.20;;;;;;;;;;106341;1277;23004;-80
2023/04/12 06:09:14;;;;;;;16.10;4.90;;;;;;;;;;106395;1285;22550;-83
2023/04/12 06:11:42;;;;;;;13.80;4.90;;;;;;;;;;106307;1285;22497;-83
2023/04/12 06:14:11;;;;;;;14.80;4.50;;;;;;;;;;106371;1285;23883;-81
2023/04/12 06:16:38;;;;;;;15.40;5.30;;;;;;;;;;109913;1270;22115;-77
2023/04/12 06:19:05;;;;;;;16.00;5.70;;;;;;;;;;109842;1285;22398;-77
2023/04/12 06:21:32;;;;;;;18.00;4.20;;;;;;;;;;109879;1285;22246;-77
2023/04/12 06:23:59;;;;;;;10.80;2.90;;;;;;;;;;109957;1285;22122;-77
2023/04/12 06:26:26;;;;;;;16.30;3.60;;;;;;;;;;109867;1270;22270;-77
2023/04/12 06:28:53;;;;;;;19.80;3.90;;;;;;;;;;109844;1286;22411;-78
2023/04/12 06:31:20;;;;;;;18.30;4.00;;;;;;;;;;110546;1275;22134;-78
2023/04/12 06:33:47;;;;;;;19.00;5.70;;;;;;;;;;110627;1274;22390;-77
2023/04/12 06:36:15;;;;;;;15.40;3.50;;;;;;;;;;110639;1251;22319;-77
2023/04/12 06:38:41;;;;;;;13.70;3.30;;;;;;;;;;110599;1274;22231;-77
2023/04/12 06:41:08;;;;;;;17.00;4.00;;;;;;;;;;110614;1274;22165;-77
2023/04/12 06:43:35;;;;;;;9.40;3.00;;;;;;;;;;110614;1275;22218;-77
2023/04/12 06:46:02;;;;;;;13.70;3.60;;;;;;;;;;110519;1275;22388;-78
2023/04/12 06:48:29;;;;;;;11.70;3.70;;;;;;;;;;110529;1254;22096;-77
2023/04/12 06:50:55;;;;;;;9.50;2.40;;;;;;;;;;110621;1274;22120;-77
2023/04/12 06:53:22;;;;;;;10.90;2.90;;;;;;;;;;110614;1274;22097;-77
2023/04/12 06:55:49;;;;;;;9.50;2.60;;;;;;;;;;110614;1274;22164;-77
2023/04/12 06:58:15;;;;;;;8.70;2.50;;;;;;;;;;110838;1254;22915;-77
2023/04/12 07:00:42;;;;;;;9.20;2.50;;;;;;;;;;110601;1275;22131;-77
2023/04/12 07:03:09;;;;;;;8.00;2.20;;;;;;;;;;110531;1275;22410;-77
2023/04/12 07:05:39;;;;;;;7.80;1.70;;;;;;;;;;110586;1275;22194;-77
2023/04/12 07:08:06;;;;;;;7.20;1.60;;;;;;;;;;110678;1254;22109;-77
2023/04/12 07:10:34;;;;;;;10.20;2.20;;;;;;;;;;110602;1275;22084;-77
2023/04/12 07:13:05;;;;;;;8.40;2.40;;;;;;;;;;110618;1275;22321;-78
2023/04/12 07:15:32;;;;;;;8.30;2.20;;;;;;;;;;110571;1275;22114;-77
2023/04/12 07:17:59;;;;;;;9.90;2.40;;;;;;;;;;110739;1257;23032;-78
2023/04/12 07:20:26;;;;;;;8.50;2.30;;;;;;;;;;110606;1275;21971;-77
2023/04/12 07:22:52;;;;;;;7.00;1.70;;;;;;;;;;110624;1275;22149;-78
2023/04/12 07:25:19;;;;;;;6.30;1.50;;;;;;;;;;110610;1275;22884;-77
2023/04/12 07:27:46;;;;;;;7.70;1.80;;;;;;;;;;110602;1255;22410;-78
2023/04/12 07:30:12;;;;;;;7.00;2.00;;;;;;;;;;110519;1275;22116;-77
2023/04/12 07:32:39;;;;;;;6.10;1.40;;;;;;;;;;110559;1275;22079;-78
2023/04/12 07:35:06;;;;;;;5.90;1.50;;;;;;;;;;110583;1275;22077;-77
2023/04/12 07:37:33;;;;;;;6.00;1.50;;;;;;;;;;110637;1254;22155;-77
2023/04/12 07:39:59;;;;;;;8.40;1.70;;;;;;;;;;110575;1275;22115;-77
2023/04/12 07:42:28;;;;;;;5.00;1.70;;;;;;;;;;110552;1275;22114;-77
2023/04/12 07:44:55;;;;;;;5.70;1.60;;;;;;;;;;110576;1252;22269;-77
2023/04/12 07:47:21;;;;;;;7.80;1.70;;;;;;;;;;110615;1254;22058;-77
2023/04/12 07:49:51;;;;;;;4.50;1.50;;;;;;;;;;110342;1275;22405;-78
2023/04/12 07:52:18;;;;;;;5.40;1.60;;;;;;;;;;110631;1275;22134;-77
2023/04/12 07:54:44;;;;;;;6.60;1.70;;;;;;;;;;110575;1257;22325;-78
2023/04/12 07:57:11;;;;;;;9.30;2.10;;;;;;;;;;110642;1275;22192;-77
2023/04/12 07:59:38;;;;;;;7.80;1.60;;;;;;;;;;111074;1253;22337;-77
2023/04/12 08:02:05;;;;;;;8.00;1.80;;;;;;;;;;110443;1275;22990;-77
2023/04/12 08:04:31;;;;;;;6.10;1.90;;;;;;;;;;110557;1275;22119;-77
2023/04/12 08:06:58;;;;;;;5.60;1.50;;;;;;;;;;110523;1275;21975;-77
2023/04/12 08:09:25;;;;;;;6.20;1.40;;;;;;;;;;110835;1257;22112;-78
2023/04/12 08:11:52;;;;;;;4.60;1.30;;;;;;;;;;110466;1275;22200;-77
2023/04/12 08:14:19;;;;;;;5.50;1.40;;;;;;;;;;110547;1275;22077;-77
2023/04/12 08:16:45;;;;;;;5.60;1.80;;;;;;;;;;110539;1275;22085;-77
2023/04/12 08:19:12;;;;;;;5.30;1.40;;;;;;;;;;110719;1253;22803;-77
2023/04/12 08:21:39;;;;;;;7.00;1.50;;;;;;;;;;110535;1275;22310;-77
2023/04/12 08:24:06;;;;;;;6.20;1.60;;;;;;;;;;110554;1275;22811;-76
2023/04/12 08:26:32;;;;;;;5.50;1.80;;;;;;;;;;110546;1275;22088;-77
2023/04/12 08:28:59;;;;;;;5.10;1.60;;;;;;;;;;110751;1253;22847;-77
2023/04/12 08:31:27;;;;;;;5.70;1.50;;;;;;;;;;110633;1256;22296;-77
2023/04/12 08:33:53;;;;;;;6.40;1.90;;;;;;;;;;110630;1276;22161;-77
2023/04/12 08:36:20;;;;;;;5.60;1.70;;;;;;;;;;110585;1276;22084;-78
2023/04/12 08:38:51;;;;;;;6.30;2.00;;;;;;;;;;110721;1256;22169;-77
2023/04/12 08:41:18;;;;;;;7.10;2.10;;;;;;;;;;110621;1276;22091;-77
2023/04/12 08:43:46;;;;;;;6.60;1.80;;;;;;;;;;110632;1276;22104;-77
2023/04/12 08:46:16;;;;;;;7.40;1.80;;;;;;;;;;110617;1276;22083;-77
2023/04/12 08:48:47;;;;;;;6.00;1.80;;;;;;;;;;110515;1254;22168;-77
2023/04/12 08:51:15;;;;;;;5.70;1.50;;;;;;;;;;110628;1276;22695;-77
2023/04/12 08:53:43;;;;;;;4.50;1.40;;;;;;;;;;110625;1276;22214;-77
2023/04/12 08:56:11;;;;;;;5.50;1.60;;;;;;;;;;110456;1276;22115;-78
2023/04/12 08:58:38;;;;;;;6.50;1.50;;;;;;;;;;110444;1276;22851;-77
2023/04/12 09:01:15;;;;;;;5.50;1.60;;;;;;;;;;110466;1276;22213;-77
2023/04/12 09:03:42;;;;;;;5.80;1.20;;;;;;;;;;110467;1276;22827;-77
2023/04/12 09:06:09;;;;;;;4.30;1.30;;;;;;;;;;110452;1276;22764;-77
2023/04/12 09:08:36;;;;;;;7.00;1.80;;;;;;;;;;110460;1276;22714;-77
2023/04/12 09:11:20;;;;;;;6.90;1.50;;;;;;;;;;110541;1259;22162;-77
2023/04/12 09:13:46;;;;;;;6.70;1.20;;;;;;;;;;110619;1276;22126;-77
2023/04/12 09:16:13;;;;;;;5.30;1.50;;;;;;;;;;110655;1276;22298;-77
2023/04/12 09:18:47;;;;;;;7.00;1.80;;;;;;;;;;110620;1276;22577;-76
2023/04/12 09:21:36;;;;;;;8.00;1.80;;;;;;;;;;110578;1259;22136;-77
2023/04/12 09:27:57;;;;;;;6.10;1.60;;;;;;;;;;110410;1278;22149;-77
2023/04/12 09:30:24;;;;;;;8.40;1.50;;;;;;;;;;110497;1256;22112;-77
2023/04/12 09:32:53;;;;;;;6.00;1.70;;;;;;;;;;110379;1278;22306;-77
2023/04/12 09:35:33;;;;;;;8.50;3.40;;;;;;;;;;110262;1278;22116;-77
2023/04/12 09:38:07;;;;;;;6.20;1.40;;;;;;;;;;110391;1278;22115;-76
2023/04/12 09:40:35;;;;;;;5.70;1.60;;;;;;;;;;110552;1256;22324;-77
2023/04/12 09:43:02;;;;;;;7.90;2.00;;;;;;;;;;110373;1278;22401;-77
2023/04/12 09:45:32;;;;;;;7.50;2.30;;;;;;;;;;110377;1278;22113;-76
2023/04/12 09:47:59;;;;;;;9.20;1.90;;;;;;;;;;110252;1278;22132;-77
2023/04/12 09:50:27;;;;;;;5.90;1.70;;;;;;;;;;110444;1259;22131;-76
2023/04/12 09:52:57;;;;;;;5.90;1.80;;;;;;;;;;110390;1278;22157;-75
2023/04/12 09:55:55;;;;;;;7.60;1.80;;;;;;;;;;110388;1278;22214;-81
2023/04/12 09:58:25;;;;;;;8.30;1.70;;;;;;;;;;110407;1278;22856;-80
2023/04/12 10:01:12;;;;;;;8.50;1.50;;;;;;;;;;110317;1256;22073;-81
2023/04/12 10:03:39;;;;;;;5.70;1.60;;;;;;;;;;110140;1278;22813;-83
2023/04/12 10:06:14;;;;;;;5.10;1.40;;;;;;;;;;110381;1278;22111;-83
2023/04/12 10:08:41;;;;;;;6.20;1.60;;;;;;;;;;110391;1278;22129;-81
2023/04/12 10:11:09;;;;;;;6.70;1.80;;;;;;;;;;110442;1256;22205;-82
2023/04/12 10:13:39;;;;;;;7.50;1.80;;;;;;;;;;110383;1278;22131;-77
2023/04/12 10:16:06;;;;;;;5.30;1.40;;;;;;;;;;110382;1278;22148;-76
2023/04/12 10:18:34;;;;;;;5.70;1.40;;;;;;;;;;110375;1278;22108;-76
2023/04/12 10:21:01;;;;;;;4.90;1.00;;;;;;;;;;110635;1253;22114;-76
2023/04/12 10:23:28;;;;;;;6.70;1.50;;;;;;;;;;110228;1276;22981;-77
2023/04/12 10:25:57;;;;;;;6.80;1.50;;;;;;;;;;110429;1276;22130;-77
2023/04/12 10:28:25;;;;;;;6.50;1.50;;;;;;;;;;110422;1276;22079;-77
2023/04/12 10:30:55;;;;;;;8.10;1.50;;;;;;;;;;110568;1254;22145;-76
2023/04/12 10:33:26;;;;;;;5.90;1.40;;;;;;;;;;110344;1276;22106;-77
2023/04/12 10:36:02;;;;;;;4.50;1.20;;;;;;;;;;110471;1277;22119;-78
2023/04/12 10:38:36;;;;;;;5.90;1.30;;;;;;;;;;110214;1276;22112;-77
2023/04/12 10:41:12;;;;;;;5.10;0.90;;;;;;;;;;110368;1253;22131;-76
2023/04/12 10:43:41;;;;;;;4.00;0.90;;;;;;;;;;110345;1277;22698;-76
2023/04/12 10:46:27;;;;;;;4.40;1.00;;;;;;;;;;110461;1276;22972;-76
2023/04/12 10:48:55;;;;;;;4.60;1.00;;;;;;;;;;110502;1276;22118;-76
2023/04/12 10:51:27;;;;;;;4.00;1.20;;;;;;;;;;110403;1256;22139;-76
2023/04/12 10:54:07;;;;;;;3.40;1.00;;;;;;;;;;110327;1277;22081;-76
2023/04/12 10:56:38;;;;;;;5.70;1.50;;;;;;;;;;110461;1276;22131;-76
2023/04/12 10:59:09;;;;;;;4.30;1.30;;;;;;;;;;110344;1276;22145;-75
2023/04/12 11:01:41;;;;;;;5.20;1.20;;;;;;;;;;110442;1256;21987;-76
2023/04/12 11:04:20;;;;;;;4.20;1.00;;;;;;;;;;110223;1277;22019;-76
2023/04/12 11:07:10;;;;;;;5.60;1.40;;;;;;;;;;110369;1276;22298;-76
2023/04/12 11:09:44;;;;;;;5.90;1.70;;;;;;;;;;110376;1276;23004;-76
2023/04/12 11:12:37;;;;;;;5.00;1.90;;;;;;;;;;110574;1259;22799;-76
2023/04/12 11:15:05;;;;;;;5.80;1.80;;;;;;;;;;110209;1276;22565;-76
2023/04/12 11:17:52;;;;;;;7.50;1.50;;;;;;;;;;110205;1277;22117;-76
2023/04/12 11:20:19;;;;;;;4.90;1.50;;;;;;;;;;110334;1277;22324;-76
2023/04/12 11:22:47;;;;;;;6.70;2.00;;;;;;;;;;110507;1259;22827;-76
2023/04/12 11:25:15;;;;;;;5.70;2.00;;;;;;;;;;110323;1276;22181;-76
2023/04/12 11:27:49;;;;;;;4.60;1.30;;;;;;;;;;110311;1277;22303;-76
2023/04/12 11:30:18;;;;;;;4.70;1.10;;;;;;;;;;110312;1278;23128;-75
2023/04/12 11:32:46;;;;;;;4.60;1.30;;;;;;;;;;110500;1260;22175;-76
2023/04/12 11:35:14;;;;;;;5.10;1.30;;;;;;;;;;110462;1277;22602;-77
2023/04/12 11:37:41;;;;;;;5.20;1.80;;;;;;;;;;110213;1277;22193;-76
2023/04/12 11:40:10;;;;;;;5.90;1.80;;;;;;;;;;110448;1277;22106;-79
2023/04/12 11:42:38;;;;;;;5.60;1.70;;;;;;;;;;110230;1262;22171;-75
2023/04/12 11:45:06;;;;;;;4.50;1.50;;;;;;;;;;110279;1264;22113;-75
2023/04/12 11:47:33;;;;;;;6.50;1.60;;;;;;;;;;110491;1277;22116;-76
2023/04/12 11:50:01;;;;;;;6.10;1.60;;;;;;;;;;110454;1277;22163;-76
2023/04/12 11:52:30;;;;;;;4.20;1.40;;;;;;;;;;110342;1254;22180;-77
2023/04/12 11:55:05;;;;;;;5.70;1.70;;;;;;;;;;110184;1277;22360;-75
2023/04/12 11:57:33;;;;;;;4.70;1.40;;;;;;;;;;110463;1277;22021;-76
2023/04/12 12:00:01;;;;;;;5.50;1.30;;;;;;;;;;110472;1277;22162;-76
2023/04/12 12:02:32;;;;;;;4.60;1.50;;;;;;;;;;110311;1254;22145;-75
2023/04/12 12:04:59;;;;;;;6.50;1.40;;;;;;;;;;110204;1277;22893;-74
2023/04/12 12:07:27;;;;;;;4.90;1.50;;;;;;;;;;110476;1277;22113;-76
2023/04/12 12:09:55;;;;;;;4.90;1.10;;;;;;;;;;110461;1277;22211;-76
2023/04/12 12:12:23;;;;;;;10.90;3.70;;;;;;;;;;110424;1277;22131;-76
2023/04/12 12:14:50;;;;;;;9.60;3.20;;;;;;;;;;110491;1260;22964;-76
2023/04/12 12:17:18;;;;;;;17.30;7.50;;;;;;;;;;110303;1277;22109;-75
2023/04/12 12:19:46;;;;;;;7.00;2.20;;;;;;;;;;110434;1277;22106;-76
2023/04/12 12:22:18;;;;;;;7.90;2.50;;;;;;;;;;110465;1277;22961;-75
2023/04/12 12:24:46;;;;;;;6.90;1.90;;;;;;;;;;110455;1256;22113;-75
2023/04/12 12:27:17;;;;;;;9.90;3.00;;;;;;;;;;110223;1278;22112;-76
2023/04/12 12:29:49;;;;;;;5.80;1.60;;;;;;;;;;110437;1278;22133;-77
2023/04/12 12:32:19;;;;;;;7.90;2.70;;;;;;;;;;110205;1278;22127;-76
2023/04/12 12:34:52;;;;;;;4.90;1.40;;;;;;;;;;110341;1260;22313;-76
2023/04/12 12:37:25;;;;;;;5.00;1.30;;;;;;;;;;110164;1278;22152;-78
2023/04/12 12:40:12;;;;;;;3.50;1.20;;;;;;;;;;110435;1278;22262;-75
2023/04/12 12:42:59;;;;;;;4.20;0.90;;;;;;;;;;110217;1278;22136;-76
2023/04/12 12:45:34;;;;;;;4.00;1.30;;;;;;;;;;110252;1258;22121;-76
2023/04/12 12:48:07;;;;;;;4.70;1.20;;;;;;;;;;110091;1278;22150;-80
2023/04/12 12:50:36;;;;;;;4.40;1.20;;;;;;;;;;110422;1278;22682;-81
2023/04/12 12:53:07;;;;;;;4.30;1.00;;;;;;;;;;110428;1278;22103;-77
2023/04/12 12:55:36;;;;;;;4.50;0.90;;;;;;;;;;110475;1256;22093;-77
2023/04/12 12:58:05;;;;;;;7.20;2.10;;;;;;;;;;110431;1278;22111;-74
2023/04/12 13:00:35;;;;;;;4.20;1.30;;;;;;;;;;110155;1278;22175;-77
2023/04/12 13:03:04;;;;;;;4.60;1.10;;;;;;;;;;110414;1278;22062;-76
2023/04/12 13:05:33;;;;;;;5.70;1.40;;;;;;;;;;110416;1256;22138;-77
2023/04/12 13:08:02;;;;;;;3.70;1.20;;;;;;;;;;110244;1278;22109;-77
2023/04/12 13:10:31;;;;;;;5.00;1.50;;;;;;;;;;110425;1278;22106;-77
2023/04/12 13:13:00;;;;;;;4.70;1.30;;;;;;;;;;110239;1278;22134;-78
2023/04/12 13:15:29;;;;;;;6.10;1.90;;;;;;;;;;110530;1260;22184;-78
2023/04/12 13:17:59;;;;;;;5.70;1.70;;;;;;;;;;110218;1278;22138;-77
2023/04/12 13:20:28;;;;;;;5.10;1.30;;;;;;;;;;110222;1278;22114;-78
2023/04/12 13:22:57;;;;;;;5.40;1.20;;;;;;;;;;110202;1278;22848;-77
2023/04/12 13:25:26;;;;;;;7.40;1.60;;;;;;;;;;110466;1259;22137;-77
2023/04/12 13:35:11;;;;;;;4.20;1.20;;;;;;;;;;103952;1293;547836;-82
2023/04/12 13:37:37;;;;;;;7.80;1.80;;;;;;;;;;106364;1286;23901;-79
2023/04/12 13:40:03;;;;;;;7.30;1.50;;;;;;;;;;106316;1286;25297;-80
2023/04/12 13:42:30;;;;;;;6.10;1.50;;;;;;;;;;106449;1286;25345;-83
2023/04/12 13:44:56;;;;;;;4.80;1.30;;;;;;;;;;106258;1268;25499;-79
2023/04/12 13:47:22;;;;;;;8.20;2.10;;;;;;;;;;104083;1285;2677933;-76
2023/04/12 13:49:48;;;;;;;7.20;1.60;;;;;;;;;;106350;1285;25494;-79
2023/04/12 13:52:15;;;;;;;8.60;2.30;;;;;;;;;;106207;1284;24200;-79
2023/04/12 13:54:42;;;;;;;5.80;1.80;;;;;;;;;;106352;1274;25429;-86
2023/04/12 13:57:08;;;;;;;5.20;1.40;;;;;;;;;;106409;1284;22535;-84
2023/04/12 13:59:35;;;;;;;5.60;1.40;;;;;;;;;;106435;1284;25339;-82
2023/04/12 14:02:01;;;;;;;4.30;1.20;;;;;;;;;;106352;1284;24206;-84
2023/04/12 14:04:28;;;;;;;4.80;1.20;;;;;;;;;;106207;1267;23131;-77
2023/04/12 14:06:55;;;;;;;7.90;2.20;;;;;;;;;;106330;1285;24186;-80
2023/04/12 14:09:26;;;;;;;6.00;1.80;;;;;;;;;;106180;1285;22540;-79
2023/04/12 14:11:56;;;;;;;8.90;1.80;;;;;;;;;;106407;1285;22544;-82
2023/04/12 14:14:23;;;;;;;7.70;1.70;;;;;;;;;;106378;1284;22605;-82
2023/04/12 14:16:54;;;;;;;6.40;1.70;;;;;;;;;;106323;1284;25342;-83
2023/04/12 14:19:20;;;;;;;6.60;2.20;;;;;;;;;;106416;1284;25548;-81
2023/04/12 14:21:47;;;;;;;13.60;8.80;;;;;;;;;;106431;1284;24259;-78
2023/04/12 14:24:14;;;;;;;9.20;2.50;;;;;;;;;;106517;1284;22546;-82
2023/04/12 14:26:41;;;;;;;8.20;2.60;;;;;;;;;;106615;1265;22540;-85
2023/04/12 14:29:07;;;;;;;9.20;2.70;;;;;;;;;;106353;1285;24262;-80
2023/04/12 14:31:33;;;;;;;6.20;1.60;;;;;;;;;;106343;1285;23894;-84
2023/04/12 14:33:59;;;;;;;5.00;1.40;;;;;;;;;;106351;1285;25230;-83
2023/04/12 14:36:26;;;;;;;5.10;1.50;;;;;;;;;;106394;1263;22656;-79
2023/04/12 14:38:52;;;;;;;8.10;1.80;;;;;;;;;;106441;1284;24243;-78
2023/04/12 14:41:19;;;;;;;6.70;2.00;;;;;;;;;;106441;1284;22539;-83
2023/04/12 14:43:45;;;;;;;6.30;1.70;;;;;;;;;;106492;1284;22551;-80
2023/04/12 14:46:11;;;;;;;6.30;1.70;;;;;;;;;;106414;1266;22569;-78
2023/04/12 14:48:38;;;;;;;9.50;2.30;;;;;;;;;;106368;1285;25385;-82
2023/04/12 14:51:04;;;;;;;8.50;2.10;;;;;;;;;;106342;1286;22688;-79
2023/04/12 14:53:31;;;;;;;5.90;1.70;;;;;;;;;;106121;1286;22550;-79
2023/04/12 14:55:59;;;;;;;6.80;1.90;;;;;;;;;;106381;1267;25412;-78
2023/04/12 14:58:28;;;;;;;7.50;2.10;;;;;;;;;;106378;1276;22911;-79
2023/04/12 15:00:54;;;;;;;9.50;2.60;;;;;;;;;;106361;1284;25414;-78
2023/04/12 15:03:21;;;;;;;7.40;2.10;;;;;;;;;;106411;1284;22743;-78
2023/04/12 15:05:47;;;;;;;8.30;2.30;;;;;;;;;;106362;1279;22549;-85
2023/04/12 15:08:13;;;;;;;7.30;2.20;;;;;;;;;;106436;1286;25422;-77
2023/04/12 15:10:39;;;;;;;10.10;2.30;;;;;;;;;;106322;1285;22804;-81
2023/04/12 15:13:05;;;;;;;8.00;2.40;;;;;;;;;;106123;1285;22624;-79
2023/04/12 15:15:31;;;;;;;8.90;2.90;;;;;;;;;;107143;1251;22533;-77
2023/04/12 15:17:58;;;;;;;8.30;2.80;;;;;;;;;;107148;1252;22494;-81
2023/04/12 15:20:24;;;;;;;7.20;2.20;;;;;;;;;;107199;1273;22526;-81
2023/04/12 15:22:50;;;;;;;7.30;2.20;;;;;;;;;;107187;1273;24187;-81
2023/04/12 15:25:16;;;;;;;8.70;2.90;;;;;;;;;;107212;1273;25350;-80
2023/04/12 15:27:42;;;;;;;7.00;2.20;;;;;;;;;;107086;1274;25399;-82
2023/04/12 15:30:11;;;;;;;7.20;2.50;;;;;;;;;;107062;1274;22530;-83
2023/04/12 15:32:40;;;;;;;7.50;2.50;;;;;;;;;;107045;1274;22532;-82
2023/04/12 15:35:06;;;;;;;7.50;2.70;;;;;;;;;;107076;1263;22528;-77
2023/04/12 15:37:33;;;;;;;12.70;2.70;;;;;;;;;;107115;1251;22569;-84
2023/04/12 15:40:00;;;;;;;10.60;2.70;;;;;;;;;;107237;1273;22997;-80
2023/04/12 15:42:26;;;;;;;9.60;3.00;;;;;;;;;;107161;1273;24243;-78
2023/04/12 15:44:52;;;;;;;10.30;3.00;;;;;;;;;;107028;1273;23904;-77
2023/04/12 15:47:18;;;;;;;7.30;2.50;;;;;;;;;;106870;1270;22648;-86
2023/04/12 15:49:45;;;;;;;9.90;3.10;;;;;;;;;;106890;1274;24199;-76
2023/04/12 15:52:12;;;;;;;8.80;2.70;;;;;;;;;;107011;1274;24369;-86
2023/04/12 15:54:41;;;;;;;9.60;3.00;;;;;;;;;;107031;1274;22657;-84
2023/04/12 15:57:08;;;;;;;8.10;2.70;;;;;;;;;;107038;1273;24183;-80
2023/04/12 15:59:36;;;;;;;8.60;2.80;;;;;;;;;;107115;1273;22537;-81
2023/04/12 16:02:05;;;;;;;9.60;3.20;;;;;;;;;;107177;1273;22517;-80
2023/04/12 16:04:32;;;;;;;9.20;3.00;;;;;;;;;;110762;1273;22402;-78
2023/04/12 16:07:02;;;;;;;14.50;3.60;;;;;;;;;;110716;1267;22197;-77
2023/04/12 16:09:31;;;;;;;11.10;4.00;;;;;;;;;;110650;1274;22120;-78
2023/04/12 16:11:59;;;;;;;12.60;3.80;;;;;;;;;;110611;1274;22312;-77
2023/04/12 16:14:25;;;;;;;11.10;3.30;;;;;;;;;;110593;1274;22117;-77
2023/04/12 16:16:51;;;;;;;10.70;3.70;;;;;;;;;;110568;1251;22293;-77
2023/04/12 16:19:17;;;;;;;11.50;4.10;;;;;;;;;;110794;1273;22141;-77
2023/04/12 16:21:43;;;;;;;11.80;3.80;;;;;;;;;;110767;1273;22115;-78
2023/04/12 16:24:10;;;;;;;11.10;4.70;;;;;;;;;;110652;1273;22231;-78
2023/04/12 16:26:37;;;;;;;11.20;4.40;;;;;;;;;;110727;1273;22536;-77
2023/04/12 16:29:03;;;;;;;13.60;5.00;;;;;;;;;;110867;1252;22603;-77
2023/04/12 16:31:30;;;;;;;10.10;3.50;;;;;;;;;;110547;1275;23097;-77
2023/04/12 16:33:57;;;;;;;10.40;3.50;;;;;;;;;;110612;1275;22361;-77
2023/04/12 16:36:23;;;;;;;11.20;3.60;;;;;;;;;;110538;1275;22121;-78
2023/04/12 16:38:50;;;;;;;14.40;5.00;;;;;;;;;;110914;1256;22202;-77
2023/04/12 16:41:17;;;;;;;22.20;8.10;;;;;;;;;;110627;1274;22119;-77